Oostburg, Wisconsin
Current Conditions -  °F | °C
As of 4:53 AM on Thursday 18 Dec 2014 (Local Time) from KSBM Reporting Station
Overcast Overcast  
Wind Chill: -8°   Ceiling: 1100
Heat Index: -4°   Visibility: 10mi
Dew Point: -7°   Wind: 7mph
Humidity: 78%   Direction: 300°WNW
Pressure: 30.25"   Gusts: NA
Location:  43.62°N, 87.79°W
Report Text: KSBM 181053Z AUTO 30006KT 10SM OVC011 M04/M07 A3025 RMK AO2 SLP255 T10391072
Loading
Personal Weather Stations






























Interactive Weather Map New forecast layout! Learn more

10-Day Weather Forecast

Advertisements
Track Severe Weather on mobile